createdAt,value
2022-10-08T00:00:00.864Z,14.14
2022-10-08T00:02:32.059Z,14.30
2022-10-08T00:05:01.763Z,14.11
2022-10-08T00:07:31.963Z,14.29
2022-10-08T00:10:01.732Z,14.34
2022-10-08T00:12:31.462Z,14.34
2022-10-08T00:15:01.526Z,14.07
2022-10-08T00:17:31.277Z,14.38
2022-10-08T00:20:01.369Z,14.27
2022-10-08T00:22:31.104Z,14.34
2022-10-08T00:25:00.835Z,14.46
2022-10-08T00:27:30.588Z,14.53
2022-10-08T00:30:00.076Z,14.36
2022-10-08T00:32:29.877Z,14.54
2022-10-08T00:34:59.605Z,14.40
2022-10-08T00:37:29.637Z,14.51
2022-10-08T00:39:59.409Z,14.50
2022-10-08T00:42:29.166Z,14.59
2022-10-08T00:45:01.142Z,14.48
2022-10-08T00:47:36.846Z,14.54
2022-10-08T00:50:28.831Z,14.48
2022-10-08T00:53:04.541Z,14.47
2022-10-08T00:55:34.909Z,14.47
2022-10-08T00:58:14.733Z,14.38
2022-10-08T01:00:44.904Z,14.66
2022-10-08T01:03:15.034Z,14.74
2022-10-08T01:05:47.821Z,14.64
2022-10-08T01:08:26.393Z,14.66
2022-10-08T01:11:14.085Z,14.93
2022-10-08T01:13:49.811Z,14.74
2022-10-08T01:16:33.929Z,14.66
2022-10-08T01:19:18.675Z,14.62
2022-10-08T01:22:03.271Z,14.30
2022-10-08T01:24:56.470Z,14.35
2022-10-08T01:27:29.751Z,14.38
2022-10-08T01:30:05.714Z,14.08
2022-10-08T01:32:40.905Z,14.04
2022-10-08T01:35:16.529Z,14.33
2022-10-08T01:37:48.003Z,14.15
2022-10-08T01:40:20.854Z,14.31
2022-10-08T01:42:52.705Z,14.20
2022-10-08T01:45:25.554Z,14.00
2022-10-08T01:47:56.968Z,13.94
2022-10-08T01:50:29.786Z,14.03
2022-10-08T01:53:02.623Z,14.03
2022-10-08T01:55:43.803Z,13.88
2022-10-08T01:58:21.640Z,14.13
2022-10-08T02:00:54.038Z,14.02
2022-10-08T02:03:23.926Z,13.95
2022-10-08T02:05:55.592Z,13.90
2022-10-08T02:08:25.348Z,13.83
2022-10-08T02:10:55.202Z,13.96
2022-10-08T02:13:25.210Z,13.93
2022-10-08T02:16:11.236Z,13.95
2022-10-08T02:18:52.139Z,13.89
2022-10-08T02:21:24.902Z,13.91
2022-10-08T02:24:15.682Z,13.84
2022-10-08T02:26:51.872Z,13.91
2022-10-08T02:29:24.679Z,13.93
2022-10-08T02:31:59.891Z,14.03
2022-10-08T02:34:38.129Z,13.99
2022-10-08T02:37:22.504Z,13.89
2022-10-08T02:39:55.251Z,13.85
2022-10-08T02:42:27.619Z,13.94
2022-10-08T02:45:03.795Z,14.01
2022-10-08T02:47:37.723Z,13.84
2022-10-08T02:50:17.744Z,13.84
2022-10-08T02:56:14.497Z,13.69
2022-10-08T02:58:46.040Z,13.48
2022-10-08T03:01:26.670Z,13.59
2022-10-08T03:03:59.292Z,13.67
2022-10-08T03:06:30.999Z,13.52
2022-10-08T03:09:02.497Z,13.59
2022-10-08T03:11:32.696Z,13.48
2022-10-08T03:14:05.572Z,13.36
2022-10-08T03:16:41.644Z,13.36
2022-10-08T03:19:14.267Z,13.39
2022-10-08T03:21:46.390Z,13.36
2022-10-08T03:24:16.460Z,13.49
2022-10-08T03:26:46.526Z,13.33
2022-10-08T03:29:16.551Z,13.54
2022-10-08T03:31:47.930Z,13.56
2022-10-08T03:34:17.751Z,13.63
2022-10-08T03:36:47.480Z,13.52
2022-10-08T03:39:17.606Z,13.40
2022-10-08T03:41:47.343Z,13.35
2022-10-08T03:44:16.939Z,13.16
2022-10-08T03:46:46.705Z,13.12
2022-10-08T03:49:16.547Z,12.82
2022-10-08T03:51:46.303Z,12.82
2022-10-08T03:54:16.085Z,12.91
2022-10-08T03:56:45.885Z,12.94
2022-10-08T03:59:15.640Z,12.97
2022-10-08T04:01:45.425Z,12.86
2022-10-08T04:04:14.940Z,12.80
2022-10-08T04:06:44.729Z,12.92
2022-10-08T04:09:14.291Z,12.70
2022-10-08T04:11:44.007Z,12.81
2022-10-08T04:14:13.752Z,12.68
2022-10-08T04:16:43.505Z,12.52
2022-10-08T04:19:13.890Z,12.55
2022-10-08T04:21:43.998Z,12.50
2022-10-08T04:24:13.831Z,12.69
2022-10-08T04:26:43.583Z,12.48
2022-10-08T04:29:13.216Z,12.63
2022-10-08T04:31:42.964Z,12.36
2022-10-08T04:34:13.053Z,12.61
2022-10-08T04:36:42.782Z,12.53
2022-10-08T04:39:12.563Z,12.45
2022-10-08T04:41:42.376Z,12.54
2022-10-08T04:44:11.839Z,12.58
2022-10-08T04:46:41.591Z,12.57
2022-10-08T04:49:11.914Z,12.69
2022-10-08T04:51:41.721Z,12.67
2022-10-08T04:54:13.920Z,12.46
2022-10-08T04:56:43.762Z,12.52
2022-10-08T04:59:13.516Z,12.49
2022-10-08T05:01:43.311Z,12.35
2022-10-08T05:04:13.094Z,12.45
2022-10-08T05:06:42.817Z,12.58
2022-10-08T05:09:12.547Z,12.40
2022-10-08T05:11:42.443Z,12.41
2022-10-08T05:14:11.913Z,12.51
2022-10-08T05:16:41.668Z,12.45
2022-10-08T05:19:11.115Z,12.57
2022-10-08T05:21:40.857Z,12.48
2022-10-08T05:24:12.686Z,12.53
2022-10-08T05:26:59.075Z,12.52
2022-10-08T05:29:13.852Z,12.47
2022-10-08T05:31:43.595Z,12.47
2022-10-08T05:34:14.914Z,12.63
2022-10-08T05:36:45.069Z,12.74
2022-10-08T05:39:15.297Z,12.52
2022-10-08T05:41:45.010Z,12.52
2022-10-08T05:44:14.936Z,12.77
2022-10-08T05:46:44.891Z,12.70
2022-10-08T05:49:22.940Z,12.88
2022-10-08T05:51:53.052Z,12.88
2022-10-08T05:54:22.832Z,12.88
2022-10-08T05:56:52.752Z,12.78
2022-10-08T05:59:24.735Z,12.74
2022-10-08T06:01:54.479Z,12.60
2022-10-08T06:04:24.419Z,12.60
2022-10-08T06:06:54.514Z,12.73
2022-10-08T06:09:24.582Z,12.68
2022-10-08T06:11:54.332Z,12.67
2022-10-08T06:14:24.679Z,12.75
2022-10-08T06:16:54.438Z,12.87
2022-10-08T06:19:24.188Z,12.70
2022-10-08T06:21:54.301Z,12.69
2022-10-08T06:24:24.212Z,12.80
2022-10-08T06:26:53.974Z,12.55
2022-10-08T06:29:23.718Z,12.64
2022-10-08T06:31:54.015Z,12.64
2022-10-08T06:34:24.233Z,12.60
2022-10-08T06:36:53.987Z,12.54
2022-10-08T06:39:23.757Z,12.63
2022-10-08T06:41:53.509Z,12.71
2022-10-08T06:44:23.232Z,12.68
2022-10-08T06:46:53.058Z,12.70
2022-10-08T06:49:24.532Z,12.62
2022-10-08T06:51:54.314Z,12.69
2022-10-08T06:54:25.976Z,12.65
2022-10-08T06:56:55.761Z,12.81
2022-10-08T06:59:25.527Z,13.02
2022-10-08T07:01:55.317Z,13.05
2022-10-08T07:04:24.813Z,13.20
2022-10-08T07:06:54.627Z,13.40
2022-10-08T07:09:24.881Z,13.57
2022-10-08T07:11:54.926Z,13.46
2022-10-08T07:14:24.445Z,13.63
2022-10-08T07:16:54.264Z,13.89
2022-10-08T07:19:25.081Z,14.12
2022-10-08T07:21:59.026Z,13.99
2022-10-08T07:24:25.829Z,14.15
2022-10-08T07:26:55.598Z,14.03
2022-10-08T07:29:26.234Z,14.17
2022-10-08T07:31:56.003Z,14.17
2022-10-08T07:34:27.104Z,14.48
2022-10-08T07:36:57.042Z,14.38
2022-10-08T07:39:27.581Z,14.50
2022-10-08T07:41:57.338Z,14.40
2022-10-08T07:44:27.528Z,14.29
2022-10-08T07:46:57.592Z,14.48
2022-10-08T07:49:27.196Z,14.31
2022-10-08T07:51:56.934Z,14.23
2022-10-08T07:54:26.421Z,14.34
2022-10-08T07:56:56.466Z,14.51
2022-10-08T07:59:26.291Z,14.56
2022-10-08T08:01:56.178Z,14.36
2022-10-08T08:04:26.290Z,14.32
2022-10-08T08:06:56.121Z,14.53
2022-10-08T08:09:26.009Z,14.55
2022-10-08T08:11:56.051Z,14.54
2022-10-08T08:14:25.816Z,14.43
2022-10-08T08:16:55.641Z,14.62
2022-10-08T08:19:27.260Z,14.54
2022-10-08T08:21:56.992Z,14.54
2022-10-08T08:24:26.488Z,14.68
2022-10-08T08:26:57.793Z,14.58
2022-10-08T08:29:27.657Z,14.51
2022-10-08T08:31:57.503Z,14.71
2022-10-08T08:34:27.517Z,14.83
2022-10-08T08:36:59.085Z,14.97
2022-10-08T08:39:30.865Z,14.67
2022-10-08T08:42:15.527Z,14.69
2022-10-08T08:44:51.423Z,14.63
2022-10-08T08:47:23.910Z,14.79
2022-10-08T08:49:59.080Z,14.85
2022-10-08T08:52:33.810Z,15.13
2022-10-08T08:55:05.401Z,15.00
2022-10-08T08:57:40.771Z,15.12
2022-10-08T09:00:18.149Z,15.29
2022-10-08T09:02:56.909Z,15.20
2022-10-08T09:05:30.721Z,15.22
2022-10-08T09:08:09.536Z,15.53
2022-10-08T09:10:50.940Z,15.76
2022-10-08T09:13:23.702Z,15.76
2022-10-08T09:15:55.870Z,15.77
2022-10-08T09:18:25.951Z,15.67
2022-10-08T09:20:55.697Z,15.68
2022-10-08T09:23:27.249Z,16.04
2022-10-08T09:26:03.012Z,16.01
2022-10-08T09:28:41.464Z,16.28
2022-10-08T09:31:35.163Z,16.48
2022-10-08T09:34:17.574Z,16.50
2022-10-08T09:37:08.252Z,16.52
2022-10-08T09:39:38.715Z,16.95
2022-10-08T09:42:18.269Z,16.72
2022-10-08T09:44:50.128Z,16.44
2022-10-08T09:47:22.398Z,16.38
2022-10-08T09:50:10.052Z,16.86
2022-10-08T09:52:42.060Z,16.98
2022-10-08T09:55:20.452Z,17.31
2022-10-08T09:57:53.246Z,17.09
2022-10-08T10:00:28.358Z,17.15
2022-10-08T10:02:59.327Z,17.50
2022-10-08T10:05:31.985Z,17.43
2022-10-08T10:08:02.190Z,17.91
2022-10-08T10:10:45.039Z,17.76
2022-10-08T10:13:20.718Z,17.82
2022-10-08T10:16:11.274Z,17.82
2022-10-08T10:18:46.509Z,17.57
2022-10-08T10:21:19.201Z,17.38
2022-10-08T10:23:57.705Z,17.09
2022-10-08T10:26:30.509Z,16.73
2022-10-08T10:29:15.252Z,16.96
2022-10-08T10:31:54.019Z,17.34
2022-10-08T10:34:32.153Z,17.75
2022-10-08T10:37:04.779Z,17.82
2022-10-08T10:39:49.223Z,18.24
2022-10-08T10:42:33.757Z,18.56
2022-10-08T10:45:24.247Z,18.38
2022-10-08T10:47:55.544Z,18.28
2022-10-08T10:50:39.452Z,18.82
2022-10-08T10:53:28.872Z,18.44
2022-10-08T10:56:10.597Z,18.56
2022-10-08T10:58:49.342Z,18.95
2022-10-08T11:01:30.783Z,19.27
2022-10-08T11:04:21.266Z,18.94
2022-10-08T11:06:54.039Z,18.76
2022-10-08T11:09:35.376Z,18.36
2022-10-08T11:12:35.997Z,18.10
2022-10-08T11:15:12.804Z,17.69
2022-10-08T11:18:04.810Z,17.80
2022-10-08T11:20:55.448Z,17.67
2022-10-08T11:23:42.978Z,17.81
2022-10-08T11:26:36.266Z,17.69
2022-10-08T11:29:09.753Z,17.38
2022-10-08T11:31:48.612Z,17.38
2022-10-08T11:34:37.826Z,17.40
2022-10-08T11:37:19.314Z,17.72
2022-10-08T11:40:23.349Z,17.69
2022-10-08T11:43:02.069Z,18.06
2022-10-08T11:45:34.609Z,17.73
2022-10-08T11:51:25.749Z,18.05
2022-10-08T11:54:04.598Z,18.12
2022-10-08T11:56:37.298Z,18.39
2022-10-08T11:59:26.470Z,18.55
2022-10-08T12:01:59.390Z,18.73
2022-10-08T12:04:32.276Z,18.48
2022-10-08T12:07:07.962Z,18.19
2022-10-08T12:09:59.222Z,18.26
2022-10-08T12:12:48.387Z,18.16
2022-10-08T12:15:31.460Z,18.39
2022-10-08T12:18:09.749Z,18.53
2022-10-08T12:20:42.312Z,18.36
2022-10-08T12:23:23.588Z,18.18
2022-10-08T12:26:06.579Z,18.10
2022-10-08T12:28:45.933Z,18.02
2022-10-08T12:31:30.900Z,18.00
2022-10-08T12:34:06.224Z,17.66
2022-10-08T12:36:47.646Z,17.66
2022-10-08T12:39:23.025Z,17.92
2022-10-08T12:41:58.418Z,18.35
2022-10-08T12:44:34.497Z,18.45
2022-10-08T12:47:25.126Z,17.79
2022-10-08T12:50:15.425Z,18.10
2022-10-08T12:52:45.387Z,18.56
2022-10-08T12:55:18.167Z,18.76
2022-10-08T12:57:49.893Z,19.01
2022-10-08T13:00:25.455Z,19.01
2022-10-08T13:03:09.929Z,19.40
2022-10-08T13:05:43.159Z,19.01
2022-10-08T13:08:32.404Z,18.95
2022-10-08T13:11:13.843Z,18.40
2022-10-08T13:13:50.982Z,18.40
2022-10-08T13:16:26.526Z,18.57
2022-10-08T13:19:00.036Z,18.71
2022-10-08T13:21:38.298Z,18.54
2022-10-08T13:24:16.364Z,17.77
2022-10-08T13:26:54.798Z,17.67
2022-10-08T13:29:27.629Z,17.71
2022-10-08T13:32:18.245Z,18.12
2022-10-08T13:34:57.363Z,18.50
2022-10-08T13:37:30.165Z,18.76
2022-10-08T13:40:15.116Z,18.93
2022-10-08T13:42:48.341Z,18.47
2022-10-08T13:45:25.984Z,18.80
2022-10-08T13:47:55.847Z,18.62
2022-10-08T13:50:25.718Z,18.02
2022-10-08T13:52:57.893Z,17.97
2022-10-08T13:55:30.460Z,18.24
2022-10-08T13:58:02.157Z,18.50
2022-10-08T14:00:34.196Z,18.64
2022-10-08T14:03:04.725Z,18.79
2022-10-08T14:05:39.393Z,18.72
2022-10-08T14:08:22.478Z,18.72
2022-10-08T14:10:54.567Z,19.22
2022-10-08T14:13:24.562Z,19.22
2022-10-08T14:15:54.652Z,19.21
2022-10-08T14:18:24.364Z,19.25
2022-10-08T14:20:54.362Z,18.92
2022-10-08T14:23:24.095Z,18.59
2022-10-08T14:25:53.879Z,18.53
2022-10-08T14:28:23.585Z,18.46
2022-10-08T14:30:53.385Z,18.80
2022-10-08T14:33:23.129Z,18.91
2022-10-08T14:35:53.949Z,19.04
2022-10-08T14:38:24.560Z,19.11
2022-10-08T14:40:54.000Z,18.98
2022-10-08T14:43:27.525Z,18.73
2022-10-08T14:45:55.229Z,18.52
2022-10-08T14:48:24.802Z,18.43
2022-10-08T14:50:56.026Z,18.30
2022-10-08T14:53:26.665Z,18.40
2022-10-08T14:56:11.634Z,18.11
2022-10-08T14:58:29.230Z,17.98
2022-10-08T15:00:59.288Z,17.97
2022-10-08T15:03:29.069Z,18.05
2022-10-08T15:06:00.781Z,18.41
2022-10-08T15:08:30.494Z,18.71
2022-10-08T15:11:03.397Z,17.90
2022-10-08T15:13:33.331Z,17.98
2022-10-08T15:16:03.195Z,18.00
2022-10-08T15:18:33.073Z,17.95
2022-10-08T15:21:02.791Z,17.69
2022-10-08T15:23:32.989Z,17.58
2022-10-08T15:26:05.349Z,17.63
2022-10-08T15:28:39.214Z,17.91
2022-10-08T15:31:14.501Z,18.01
2022-10-08T15:33:49.925Z,17.81
2022-10-08T15:36:30.424Z,17.85
2022-10-08T15:39:10.536Z,17.78
2022-10-08T15:41:42.984Z,17.60
2022-10-08T15:44:24.245Z,17.27
2022-10-08T15:47:02.625Z,17.29
2022-10-08T15:49:34.538Z,17.44
2022-10-08T15:52:06.484Z,17.15
2022-10-08T15:54:44.152Z,16.90
2022-10-08T15:57:16.064Z,17.17
2022-10-08T15:59:46.076Z,17.26
2022-10-08T16:02:17.780Z,16.96
2022-10-08T16:04:48.782Z,16.98
2022-10-08T16:07:18.804Z,16.80
2022-10-08T16:09:48.589Z,16.75
2022-10-08T16:12:18.033Z,16.62
2022-10-08T16:14:47.847Z,16.75
2022-10-08T16:17:17.586Z,16.57
2022-10-08T16:19:47.322Z,16.49
2022-10-08T16:22:16.775Z,16.33
2022-10-08T16:24:46.785Z,16.28
2022-10-08T16:27:16.524Z,16.28
2022-10-08T16:29:46.543Z,16.31
2022-10-08T16:32:16.267Z,16.13
2022-10-08T16:34:51.292Z,15.89
2022-10-08T16:37:19.111Z,15.89
2022-10-08T16:39:49.025Z,15.99
2022-10-08T16:42:18.465Z,16.00
2022-10-08T16:44:48.628Z,15.67
2022-10-08T16:47:18.651Z,15.45
2022-10-08T16:49:48.679Z,15.52
2022-10-08T16:52:18.409Z,15.57
2022-10-08T16:54:54.423Z,15.49
2022-10-08T16:57:22.492Z,15.36
2022-10-08T16:59:52.236Z,15.37
2022-10-08T17:02:25.842Z,15.21
2022-10-08T17:04:53.138Z,15.04
2022-10-08T17:07:22.620Z,14.93
2022-10-08T17:09:53.522Z,15.01
2022-10-08T17:12:23.264Z,14.86
2022-10-08T17:14:52.993Z,14.79
2022-10-08T17:17:22.784Z,14.79
2022-10-08T17:19:52.248Z,14.69
2022-10-08T17:22:21.756Z,14.57
2022-10-08T17:24:51.845Z,14.55
2022-10-08T17:27:21.605Z,14.52
2022-10-08T17:29:51.389Z,14.39
2022-10-08T17:32:20.819Z,14.39
2022-10-08T17:34:50.551Z,14.44
2022-10-08T17:37:20.545Z,14.33
2022-10-08T17:39:50.263Z,14.40
2022-10-08T17:42:20.012Z,14.20
2022-10-08T17:44:49.722Z,14.01
2022-10-08T17:47:19.748Z,14.18
2022-10-08T17:49:49.486Z,14.08
2022-10-08T17:52:20.024Z,13.89
2022-10-08T17:54:49.542Z,13.85
2022-10-08T17:57:19.283Z,13.87
2022-10-08T17:59:49.014Z,13.78
2022-10-08T18:02:18.816Z,13.82
2022-10-08T18:04:48.866Z,13.68
2022-10-08T18:07:18.607Z,13.68
2022-10-08T18:09:49.910Z,13.63
2022-10-08T18:12:19.735Z,13.53
2022-10-08T18:14:49.681Z,13.46
2022-10-08T18:17:19.442Z,13.45
2022-10-08T18:19:49.183Z,13.27
2022-10-08T18:22:20.555Z,13.25
2022-10-08T18:24:50.884Z,13.34
2022-10-08T18:27:20.614Z,13.13
2022-10-08T18:29:50.343Z,13.15
2022-10-08T18:32:19.952Z,13.17
2022-10-08T18:34:50.739Z,13.10
2022-10-08T18:37:20.621Z,12.93
2022-10-08T18:39:50.352Z,12.83
2022-10-08T18:42:20.138Z,12.93
2022-10-08T18:44:49.879Z,12.75
2022-10-08T18:47:19.907Z,12.83
2022-10-08T18:49:49.642Z,12.78
2022-10-08T18:52:21.530Z,12.65
2022-10-08T18:54:50.802Z,12.57
2022-10-08T18:57:20.819Z,12.69
2022-10-08T18:59:50.859Z,12.67
2022-10-08T19:02:20.743Z,12.56
2022-10-08T19:04:51.102Z,12.45
2022-10-08T19:07:20.563Z,12.45
2022-10-08T19:09:50.454Z,12.23
2022-10-08T19:12:20.178Z,12.25
2022-10-08T19:14:49.916Z,12.18
2022-10-08T19:17:19.933Z,12.23
2022-10-08T19:19:50.159Z,12.20
2022-10-08T19:22:19.612Z,12.17
2022-10-08T19:24:50.004Z,12.08
2022-10-08T19:27:19.468Z,11.94
2022-10-08T19:29:49.231Z,12.03
2022-10-08T19:32:19.037Z,11.94
2022-10-08T19:34:48.782Z,11.94
2022-10-08T19:37:18.487Z,11.93
2022-10-08T19:39:49.075Z,11.83
2022-10-08T19:42:18.797Z,11.82
2022-10-08T19:44:48.537Z,11.82
2022-10-08T19:47:19.923Z,11.81
2022-10-08T19:49:49.828Z,11.77
2022-10-08T19:52:19.570Z,11.74
2022-10-08T19:54:49.327Z,11.69
2022-10-08T19:57:19.373Z,11.72
2022-10-08T19:59:49.156Z,11.67
2022-10-08T20:02:19.003Z,11.55
2022-10-08T20:04:48.725Z,11.57
2022-10-08T20:07:18.486Z,11.59
2022-10-08T20:09:48.240Z,11.52
2022-10-08T20:12:17.932Z,11.49
2022-10-08T20:14:49.227Z,11.53
2022-10-08T20:17:19.265Z,11.54
2022-10-08T20:19:48.739Z,11.48
2022-10-08T20:22:18.192Z,11.38
2022-10-08T20:24:48.229Z,11.42
2022-10-08T20:27:17.963Z,11.35
2022-10-08T20:29:48.148Z,11.32
2022-10-08T20:32:17.907Z,11.32
2022-10-08T20:34:47.652Z,11.30
2022-10-08T20:37:17.472Z,11.12
2022-10-08T20:39:47.500Z,11.20
2022-10-08T20:42:17.509Z,11.16
2022-10-08T20:44:47.544Z,10.95
2022-10-08T20:47:17.348Z,10.92
2022-10-08T20:49:47.375Z,10.82
2022-10-08T20:52:16.856Z,10.77
2022-10-08T20:54:46.873Z,10.84
2022-10-08T20:57:16.624Z,10.76
2022-10-08T20:59:46.384Z,10.82
2022-10-08T21:02:19.599Z,10.80
2022-10-08T21:04:47.879Z,10.83
2022-10-08T21:07:17.927Z,10.77
2022-10-08T21:09:48.619Z,10.69
2022-10-08T21:12:18.068Z,10.60
2022-10-08T21:14:47.804Z,10.75
2022-10-08T21:17:17.561Z,10.75
2022-10-08T21:19:47.594Z,10.73
2022-10-08T21:22:17.210Z,10.78
2022-10-08T21:24:46.441Z,10.63
2022-10-08T21:27:16.226Z,10.62
2022-10-08T21:29:45.977Z,10.63
2022-10-08T21:32:16.760Z,10.64
2022-10-08T21:34:46.533Z,10.66
2022-10-08T21:37:16.263Z,10.64
2022-10-08T21:39:46.306Z,10.44
2022-10-08T21:42:16.495Z,10.47
2022-10-08T21:44:46.240Z,10.43
2022-10-08T21:47:16.010Z,10.40
2022-10-08T21:49:45.588Z,10.50
2022-10-08T21:52:16.393Z,10.45
2022-10-08T21:54:46.175Z,10.49
2022-10-08T21:57:16.539Z,10.48
2022-10-08T21:59:46.368Z,10.41
2022-10-08T22:02:16.187Z,10.28
2022-10-08T22:04:45.659Z,10.19
2022-10-08T22:07:15.394Z,10.29
2022-10-08T22:09:45.437Z,10.29
2022-10-08T22:12:14.889Z,10.21
2022-10-08T22:14:44.935Z,10.19
2022-10-08T22:17:14.683Z,10.08
2022-10-08T22:19:44.454Z,9.95
2022-10-08T22:22:16.071Z,10.10
2022-10-08T22:24:47.509Z,10.15
2022-10-08T22:27:17.251Z,10.12
2022-10-08T22:29:46.703Z,10.09
2022-10-08T22:32:17.131Z,10.07
2022-10-08T22:34:47.166Z,10.16
2022-10-08T22:37:17.199Z,10.00
2022-10-08T22:39:46.985Z,10.04
2022-10-08T22:42:16.728Z,9.88
2022-10-08T22:44:46.756Z,9.87
2022-10-08T22:47:16.801Z,9.87
2022-10-08T22:49:46.536Z,9.87
2022-10-08T22:52:16.850Z,9.88
2022-10-08T22:54:46.595Z,9.89
2022-10-08T22:57:16.329Z,9.79
2022-10-08T22:59:46.364Z,9.80
2022-10-08T23:02:16.195Z,9.74
2022-10-08T23:04:46.282Z,9.67
2022-10-08T23:07:16.008Z,9.54
2022-10-08T23:09:46.039Z,9.54
2022-10-08T23:12:16.721Z,9.73
2022-10-08T23:14:46.738Z,9.72
2022-10-08T23:17:16.554Z,9.66
2022-10-08T23:19:46.584Z,9.65
2022-10-08T23:22:16.338Z,9.65
2022-10-08T23:24:46.377Z,9.64
2022-10-08T23:27:16.120Z,9.60
2022-10-08T23:29:46.152Z,9.59
2022-10-08T23:32:15.946Z,9.64
2022-10-08T23:34:45.702Z,9.60
2022-10-08T23:37:15.414Z,9.53
2022-10-08T23:39:45.449Z,9.48
2022-10-08T23:42:14.880Z,9.33
2022-10-08T23:44:44.611Z,9.31
2022-10-08T23:47:14.715Z,9.32
2022-10-08T23:49:45.916Z,9.32
2022-10-08T23:52:16.230Z,9.23
2022-10-08T23:57:35.010Z,9.13
